Latest Weather Observations for Proserpine

IDQ60801

Issued at 8:35 pm EST Thursday 27 November 2014 (issued every 30 minutes, with the page automatically refreshed every 10 minutes)

About weather observations | Map of weather stations | Latest weather observations for QLD | Other Formats
Station Details ID: 033247 Name: PROSERPINE AIRPORT Lat: -20.49 Lon: 148.56 Height: 19.7 m
Data from the previous 72 hours. | See also: Recent months at Proserpine
Date/Time
EST
Temp
°C
App
Temp
°C
Dew
Point
Rel
Hum
%
Delta-T
°C
Wind Press
QNH
hPa
Press
MSL
hPa
Rain
since 9 am
mm
Dir
 
Spd
km/h
Gust
km/h
Spd
kts
Gust
kts
27/08:30pm 23.7 26.2 19.8 79 2.5 ESE 6 7 3 4 1013.2 - 0.0
27/08:00pm 23.9 26.0 19.4 76 2.9 SE 7 11 4 6 1013.1 - 0.0
27/07:30pm 24.6 26.6 19.2 72 3.5 ESE 7 11 4 6 1012.8 - 0.0
27/07:00pm 25.4 26.4 19.5 70 3.8 ESE 13 19 7 10 1012.5 - 0.0
27/06:30pm 25.9 26.4 20.0 70 3.8 ESE 17 24 9 13 1012.3 - 0.0
27/06:00pm 26.3 26.4 19.9 68 4.2 ESE 19 26 10 14 1012.0 1011.9 0.0
27/05:30pm 26.8 26.4 20.2 67 4.3 ESE 22 32 12 17 1011.7 - 0.0
27/05:00pm 28.6 28.3 20.3 60 5.5 ESE 22 30 12 16 1011.6 - 0.0
27/04:30pm 29.6 29.0 20.5 58 6.0 E 24 35 13 19 1011.4 - 0.0
27/04:00pm 28.8 27.4 18.9 55 6.4 ESE 24 35 13 19 1011.3 - 0.0
27/03:30pm 30.8 28.5 18.5 47 7.9 ESE 28 37 15 20 1011.2 - 0.0
27/03:00pm 31.4 28.8 17.7 44 8.8 ESE 28 37 15 20 1011.1 1011.1 0.0
27/02:30pm 30.8 26.5 14.4 36 10.0 ESE 30 43 16 23 1011.4 - 0.0
27/02:00pm 31.2 28.2 14.8 37 10.0 ESE 24 35 13 19 1011.3 - 0.0
27/01:30pm 31.8 29.8 16.5 39 9.6 ESE 22 32 12 17 1011.7 - 0.0
27/01:00pm 31.6 29.9 18.9 47 8.3 ESE 26 37 14 20 1012.1 - 0.0
27/12:30pm 31.7 30.5 19.3 47 8.1 ESE 24 35 13 19 1012.3 - 0.0
27/12:00pm 29.6 28.0 17.4 47 7.7 ESE 22 33 12 18 1012.7 1012.6 0.0
27/11:30am 29.6 27.8 17.8 49 7.5 ESE 24 35 13 19 1013.0 - 0.0
27/11:00am 29.5 28.5 18.0 50 7.3 ESE 20 32 11 17 1013.3 - 0.0
27/10:30am 29.6 31.3 20.2 57 6.2 E 11 19 6 10 1013.8 - 0.0
27/10:00am 27.8 30.0 21.1 67 4.4 N 11 19 6 10 1014.1 - 0.0
27/09:30am 26.1 27.8 20.2 70 3.8 NNE 11 17 6 9 1014.5 - 0.0
27/09:00am 26.2 26.8 20.3 70 3.9 N 17 20 9 11 1014.5 1014.5 0.8
27/08:30am 29.0 28.8 19.3 55 6.3 SE 19 33 10 18 1014.4 - 0.8
27/08:00am 26.8 26.9 19.2 63 4.9 SE 17 26 9 14 1014.4 - 0.8
27/07:30am 25.8 25.9 19.2 67 4.2 SSE 17 24 9 13 1014.6 - 0.8
27/07:00am 25.7 26.1 19.8 70 3.8 S 17 26 9 14 1014.4 - 0.8
27/06:30am 23.6 25.3 20.1 81 2.3 S 11 15 6 8 1014.4 - 0.8
27/06:00am 22.8 25.3 20.3 86 1.6 S 7 9 4 5 1014.2 1014.1 0.8
27/05:30am 22.1 24.5 20.0 88 1.3 SSW 7 9 4 5 1013.8 - 0.8
27/05:00am 22.6 24.7 20.1 86 1.6 S 9 11 5 6 1013.4 - 0.8
27/04:30am 22.9 24.7 20.4 86 1.6 S 11 13 6 7 1013.1 - 0.8
27/04:00am 22.9 26.4 20.4 86 1.6 S 2 7 1 4 1012.9 - 0.8
27/03:30am 22.6 25.2 20.5 88 1.4 SSE 7 11 4 6 1012.6 - 0.8
27/03:00am 22.4 24.6 20.3 88 1.4 S 9 9 5 5 1012.6 1012.5 0.8
27/02:30am 22.7 24.9 20.4 87 1.5 SSW 9 11 5 6 1012.7 - 0.8
27/02:00am 23.1 26.1 21.2 89 1.2 S 7 9 4 5 1012.7 - 0.8
27/01:30am 23.1 26.0 20.6 86 1.6 S 6 7 3 4 1012.9 - 0.8
27/01:00am 23.9 26.8 20.6 82 2.2 SSE 6 7 3 4 1013.1 - 0.8
27/12:30am 23.9 26.7 20.4 81 2.3 S 6 7 3 4 1013.2 - 0.8
27/12:00am 23.8 26.5 20.3 81 2.3 SSE 6 7 3 4 1013.5 1013.4 0.8
 
Date/Time
EST
Temp
°C
App
Temp
°C
Dew
Point
Rel
Hum
%
Delta-T
°C
Wind Press
QNH
hPa
Press
MSL
hPa
Rain
since 9 am
mm
Dir
 
Spd
km/h
Gust
km/h
Spd
kts
Gust
kts
26/11:30pm 23.8 26.5 20.3 81 2.3 SE 6 9 3 5 1013.8 - 0.8
26/11:00pm 23.5 26.7 20.4 83 2.0 E 4 7 2 4 1014.1 - 0.8
26/10:30pm 23.0 25.4 20.1 84 1.9 E 7 9 4 5 1014.2 - 0.8
26/10:00pm 23.3 25.8 20.2 83 2.0 E 7 11 4 6 1014.3 - 0.8
26/09:30pm 23.6 26.4 20.5 83 2.0 ESE 6 7 3 4 1014.1 - 0.8
26/09:00pm 23.6 26.3 20.7 84 1.9 ESE 7 9 4 5 1013.9 1013.8 0.8
26/08:30pm 23.6 26.2 20.5 83 2.0 ESE 7 9 4 5 1013.6 - 0.8
26/08:00pm 24.2 26.7 20.3 79 2.5 E 7 9 4 5 1013.5 - 0.8
26/07:30pm 24.7 26.4 20.2 76 2.9 ESE 11 13 6 7 1013.3 - 0.8
26/07:00pm 25.2 27.2 20.0 73 3.4 ESE 9 13 5 7 1013.1 - 0.8
26/06:30pm 26.1 27.3 20.0 69 4.0 E 13 20 7 11 1012.9 - 0.8
26/06:00pm 27.1 27.8 19.7 64 4.8 E 15 20 8 11 1012.7 1012.6 0.8
26/05:30pm 28.2 28.6 21.0 65 4.8 E 20 32 11 17 1012.4 - 0.8
26/05:00pm 27.5 27.0 20.8 67 4.4 E 24 32 13 17 1012.1 - 0.8
26/04:30pm 28.2 28.1 20.7 63 5.0 ESE 22 30 12 16 1011.9 - 0.8
26/04:00pm 29.1 28.0 19.4 55 6.3 ESE 24 35 13 19 1011.5 - 0.8
26/03:30pm 30.2 29.6 20.4 55 6.5 E 24 33 13 18 1011.7 - 0.8
26/03:00pm 28.0 26.7 20.6 64 4.9 E 28 39 15 21 1012.0 1011.9 0.8
26/02:30pm 30.5 29.2 20.7 55 6.5 ESE 28 39 15 21 1011.9 - 0.8
26/02:00pm 31.3 29.8 20.3 52 7.3 E 28 43 15 23 1012.0 - 0.8
26/01:30pm 32.2 31.0 20.1 48 8.0 E 26 37 14 20 1012.1 - 0.8
26/01:00pm 31.3 30.7 21.2 55 6.8 E 26 39 14 21 1012.5 - 0.8
26/12:30pm 30.7 29.2 20.3 53 6.9 E 28 39 15 21 1012.4 - 0.8
26/12:00pm 30.7 28.6 19.7 52 7.2 E 30 39 16 21 1012.6 1012.6 0.8
26/11:30am 30.0 29.5 21.4 60 5.8 ESE 26 35 14 19 1013.0 - 0.8
26/11:00am 30.3 29.3 20.5 55 6.5 E 26 37 14 20 1013.4 - 0.8
26/10:30am 30.3 30.7 23.2 65 4.9 ESE 26 35 14 19 1013.6 - 0.8
26/10:00am 28.5 29.2 21.5 66 4.7 ESE 20 30 11 16 1013.8 - 0.0
26/09:30am 28.7 29.0 21.5 65 4.8 E 22 32 12 17 1013.8 - 0.0
26/09:00am 29.1 29.4 21.6 64 5.0 ESE 22 30 12 16 1013.8 1013.7 0.6
26/08:30am 30.0 30.8 21.7 61 5.6 E 20 30 11 16 1013.7 - 0.6
26/08:10am 29.4 30.9 23.1 69 4.3 ESE 20 28 11 15 1013.6 - 0.6
26/08:00am 28.7 30.4 23.1 71 3.8 E 19 26 10 14 1013.8 - 0.6
26/07:30am 26.6 30.7 23.3 82 2.3 S 7 13 4 7 1013.7 - 0.6
26/07:24am 26.6 30.4 23.5 83 2.1 S 9 13 5 7 1013.6 - 0.6
26/07:00am 25.5 29.4 23.6 89 1.3 S 9 11 5 6 1013.4 - 0.6
26/06:30am 24.5 28.8 23.6 95 0.6 SSW 7 9 4 5 1013.2 - 0.6
26/06:18am 24.2 28.3 23.3 95 0.6 SSW 7 9 4 5 1013.0 - 0.6
26/06:00am 23.5 27.3 22.8 96 0.5 SSW 7 9 4 5 1012.8 1012.6 0.6
26/05:48am 23.5 27.5 22.8 96 0.5 S 6 7 3 4 1012.6 - 0.6
26/05:35am 23.3 27.2 22.6 96 0.5 S 6 9 3 5 1012.4 - 0.6
26/05:30am 23.3 27.0 22.6 96 0.5 S 7 9 4 5 1012.3 - 0.6
26/05:10am 23.1 26.8 22.3 95 0.5 SSW 6 9 3 5 1012.1 - 0.6
26/05:00am 23.3 27.9 22.5 95 0.5 S 2 6 1 3 1012.0 - 0.6
26/04:35am 23.5 26.9 22.7 95 0.5 S 9 11 5 6 1011.7 - 0.6
26/04:30am 23.4 26.7 22.6 95 0.5 S 9 11 5 6 1011.7 - 0.6
26/04:21am 23.3 27.9 22.5 95 0.5 S 2 7 1 4 1011.8 - 0.6
26/04:00am 23.4 27.3 22.6 95 0.5 S 6 9 3 5 1011.9 - 0.6
26/03:30am 23.6 27.4 22.8 95 0.5 S 7 9 4 5 1011.7 - 0.6
26/03:00am 23.5 28.2 22.7 95 0.5 SSW 2 7 1 4 1011.6 1011.5 0.6
26/02:30am 23.5 27.5 22.7 95 0.5 SSW 6 7 3 4 1011.8 - 0.6
26/02:00am 23.7 27.7 22.7 94 0.7 SW 6 9 3 5 1011.7 - 0.6
26/01:30am 23.9 27.9 22.7 93 0.8 S 6 7 3 4 1011.9 - 0.6
26/01:24am 24.0 28.0 22.8 93 0.8 S 6 9 3 5 1012.0 - 0.6
26/01:00am 24.4 28.3 23.0 92 0.9 S 7 11 4 6 1012.1 - 0.4
26/12:30am 24.5 28.4 22.9 91 1.1 S 7 11 4 6 1012.4 - 0.4
26/12:05am 24.5 28.0 22.9 91 1.1 S 9 13 5 7 1012.8 - 0.4
26/12:00am 24.7 27.8 22.9 90 1.2 S 11 13 6 7 1012.9 1012.8 0.0
 
Date/Time
EST
Temp
°C
App
Temp
°C
Dew
Point
Rel
Hum
%
Delta-T
°C
Wind Press
QNH
hPa
Press
MSL
hPa
Rain
since 9 am
mm
Dir
 
Spd
km/h
Gust
km/h
Spd
kts
Gust
kts
25/11:57pm 24.7 27.8 22.8 89 1.3 S 11 13 6 7 1012.9 - 0.0
25/11:40pm 25.4 28.8 22.7 85 1.8 S 9 11 5 6 1013.0 - 0.0
25/11:30pm 25.5 29.0 22.8 85 1.8 S 9 11 5 6 1013.2 - 0.0
25/11:00pm 25.7 29.4 22.6 83 2.1 SSE 7 11 4 6 1013.6 - 0.0
25/10:30pm 25.8 29.3 22.9 84 2.0 ESE 9 13 5 7 1013.8 - 0.0
25/10:00pm 25.7 29.2 22.8 84 2.0 ESE 9 13 5 7 1013.7 - 0.0
25/09:30pm 25.9 28.9 22.6 82 2.2 ESE 11 17 6 9 1013.6 - 0.0
25/09:05pm 26.0 28.6 22.7 82 2.2 ESE 13 17 7 9 1013.4 - 0.0
25/09:00pm 25.8 28.3 22.5 82 2.2 ESE 13 15 7 8 1013.4 1013.2 0.0
25/08:31pm 25.7 28.4 22.2 81 2.3 ESE 11 15 6 8 1013.2 - 0.0
25/08:30pm 25.7 28.4 22.2 81 2.3 ESE 11 15 6 8 1013.2 - 0.0
25/08:00pm 26.2 29.5 22.5 80 2.5 ESE 9 13 5 7 1013.0 - 0.0
25/07:38pm 25.9 29.5 22.4 81 2.4 SE 7 11 4 6 1012.8 - 0.0
25/07:30pm 25.7 28.7 22.0 80 2.5 SE 9 13 5 7 1012.7 - 0.0
25/07:00pm 26.1 28.2 21.7 77 2.9 ESE 13 19 7 10 1012.3 - 0.0
25/06:30pm 26.5 28.3 21.9 76 3.1 ESE 15 20 8 11 1012.1 - 0.0
25/06:00pm 27.4 28.3 21.9 72 3.7 ESE 20 30 11 16 1011.6 1011.5 0.0
25/05:30pm 28.2 28.6 21.7 68 4.4 ESE 22 30 12 16 1011.4 - 0.0
25/05:00pm 28.5 27.8 20.2 60 5.5 ESE 24 35 13 19 1011.2 - 0.0
25/04:30pm 30.0 29.2 20.8 57 6.1 ESE 26 35 14 19 1010.9 - 0.0
25/04:00pm 31.0 29.9 19.4 50 7.6 E 24 33 13 18 1010.9 - 0.0
25/03:30pm 31.3 29.9 17.9 44 8.6 ESE 22 33 12 18 1010.8 - 0.0
25/03:00pm 31.3 29.4 17.6 44 8.8 E 24 35 13 19 1010.9 1010.8 0.0
25/02:30pm 32.0 30.3 18.9 45 8.5 E 26 39 14 21 1011.1 - 0.0
25/02:00pm 31.4 29.4 17.3 43 9.0 E 24 35 13 19 1011.4 - 0.0
25/01:30pm 31.4 29.3 18.0 44 8.6 E 26 39 14 21 1011.8 - 0.0
25/01:00pm 33.3 31.6 19.7 44 9.0 SE 28 37 15 20 1012.1 - 0.0
25/12:30pm 32.4 31.3 20.3 48 8.0 E 26 35 14 19 1012.4 - 0.0
25/12:00pm 31.5 30.2 19.8 49 7.7 ESE 26 32 14 17 1012.9 1012.8 0.0
25/11:30am 31.7 30.5 20.0 50 7.7 ESE 26 37 14 20 1013.3 - 0.0
25/11:00am 30.9 30.1 19.3 50 7.6 ESE 22 33 12 18 1013.5 - 0.0
25/10:30am 31.1 30.7 20.1 52 7.3 ESE 22 30 12 16 1013.7 - 0.0
25/10:00am 30.0 29.5 20.0 55 6.6 ESE 22 35 12 19 1013.8 - 0.0
25/09:30am 28.6 27.5 19.5 58 5.9 SE 24 33 13 18 1013.7 - 0.0
25/09:00am 28.2 28.2 19.7 60 5.5 ESE 19 28 10 15 1013.8 1013.7 0.0
25/08:30am 28.3 28.2 19.5 59 5.7 E 19 26 10 14 1013.9 - 0.0
25/08:00am 28.1 28.7 21.1 65 4.7 E 19 24 10 13 1013.7 - 0.0
25/07:30am 27.5 29.8 22.0 72 3.7 SE 13 20 7 11 1013.6 - 0.0
25/07:00am 26.3 29.2 21.7 76 3.1 ESE 9 13 5 7 1013.6 - 0.0
25/06:30am 24.6 27.9 21.9 85 1.8 S 7 9 4 5 1013.5 - 0.0
25/06:00am 22.5 25.7 21.3 93 0.8 S 6 7 3 4 1013.4 1013.3 0.0
25/05:30am 21.3 24.1 20.5 95 0.5 SSW 6 9 3 5 1013.1 - 0.0
25/05:00am 21.4 24.0 20.4 94 0.6 S 7 9 4 5 1012.8 - 0.0
25/04:30am 21.3 24.4 20.3 94 0.6 SW 4 9 2 5 1012.7 - 0.0
25/04:00am 21.5 24.0 20.3 93 0.8 SSW 7 9 4 5 1012.5 - 0.0
25/03:30am 21.5 23.9 20.1 92 0.9 SSW 7 7 4 4 1012.5 - 0.0
25/03:00am 21.8 24.5 20.3 91 1.0 SSW 6 7 3 4 1012.5 1012.4 0.0
25/02:30am 21.8 24.2 20.1 90 1.1 SW 7 9 4 5 1012.6 - 0.0
25/02:00am 22.3 25.5 20.6 90 1.1 SW 4 6 2 3 1012.9 - 0.0
25/01:30am 22.9 26.2 20.8 88 1.4 S 4 7 2 4 1013.1 - 0.0
25/01:00am 22.6 25.5 21.1 91 1.0 SSW 7 9 4 5 1013.3 - 0.0
25/12:30am 22.1 25.2 20.2 89 1.2 SSW 4 7 2 4 1013.4 - 0.0
25/12:00am 22.5 26.5 20.6 89 1.2 CALM 0 0 0 0 1014.0 1013.9 0.0
 
Date/Time
EST
Temp
°C
App
Temp
°C
Dew
Point
Rel
Hum
%
Delta-T
°C
Wind Press
QNH
hPa
Press
MSL
hPa
Rain
since 9 am
mm
Dir
 
Spd
km/h
Gust
km/h
Spd
kts
Gust
kts
24/11:30pm 23.1 27.1 20.6 86 1.6 CALM 0 0 0 0 1014.2 - 0.0
24/11:00pm 23.4 27.4 20.5 84 1.9 CALM 0 0 0 0 1014.4 - 0.0
24/10:30pm 23.4 25.8 20.9 86 1.6 SSW 9 11 5 6 1014.5 - 0.0
24/10:00pm 23.3 26.7 20.2 83 2.0 SSW 2 6 1 3 1014.6 - 0.0
24/09:30pm 24.0 27.3 20.7 82 2.2 SSE 4 6 2 3 1014.6 - 0.0
24/09:00pm 24.1 27.1 21.2 84 1.9 ESE 7 9 4 5 1014.4 1014.3 0.0

Other Formats:

Comma delimited format used in spreadsheet applications
http://www.bom.gov.au/fwo/IDQ60801/IDQ60801.94365.axf

JavaScript Object Notation format (JSON) in row-major order
http://www.bom.gov.au/fwo/IDQ60801/IDQ60801.94365.json